createdAt,value
2023-03-03T18:41:58.121Z,1.24
2023-03-03T18:44:31.170Z,0.32
2023-03-03T18:46:59.005Z,0.27
2023-03-03T18:49:49.247Z,0.67
2023-03-03T18:52:32.117Z,0.58
2023-03-03T18:55:04.100Z,-0.71
2023-03-03T21:42:28.878Z,-1.96
2023-03-03T21:44:55.285Z,-1.98
2023-03-03T21:47:23.609Z,-1.98
2023-03-03T21:49:52.262Z,-1.89
2023-03-03T21:52:21.224Z,-1.91
2023-03-03T21:54:50.193Z,-2.12
2023-03-03T21:57:16.956Z,-1.89
2023-03-03T21:59:43.424Z,-1.92
2023-03-03T22:02:10.561Z,-1.87
2023-03-03T22:04:40.876Z,-1.72
2023-03-03T22:07:07.430Z,-1.83
2023-03-03T22:09:35.197Z,-1.92
2023-03-03T22:12:01.652Z,-1.93
2023-03-03T22:14:31.173Z,-2.19
2023-03-03T22:16:57.622Z,-2.31
2023-03-03T22:19:24.111Z,-2.38
2023-03-03T22:21:50.805Z,-2.15
2023-03-03T22:24:17.732Z,-2.65
2023-03-03T22:26:44.191Z,-2.38
2023-03-03T22:29:10.833Z,-2.35
2023-03-03T22:31:37.376Z,-2.32
2023-03-03T22:34:04.658Z,-2.32
2023-03-03T22:36:31.099Z,-2.16
2023-03-03T22:38:57.518Z,-2.25
2023-03-03T22:41:23.893Z,-2.40
2023-03-03T22:43:50.595Z,-2.55
2023-03-03T22:46:17.264Z,-2.62
2023-03-03T22:48:43.727Z,-2.40
2023-03-03T22:51:10.091Z,-2.40
2023-03-03T22:53:36.500Z,-2.58
2023-03-03T22:56:02.954Z,-2.64
2023-03-03T22:58:29.504Z,-2.74
2023-03-03T23:00:55.939Z,-2.74
2023-03-03T23:03:22.858Z,-2.84
2023-03-03T23:05:51.779Z,-2.61
2023-03-03T23:08:19.472Z,-2.55
2023-03-03T23:10:46.049Z,-2.44
2023-03-03T23:13:12.955Z,-2.25
2023-03-03T23:15:39.351Z,-2.39
2023-03-03T23:18:05.774Z,-2.42
2023-03-03T23:20:32.208Z,-2.62
2023-03-03T23:22:58.753Z,-2.34
2023-03-03T23:25:25.584Z,-2.10
2023-03-03T23:27:52.906Z,-2.08
2023-03-03T23:30:21.052Z,-2.03
2023-03-03T23:32:47.969Z,-2.04
2023-03-03T23:35:15.129Z,-2.08
2023-03-03T23:37:41.772Z,-2.04
2023-03-03T23:40:09.214Z,-2.06
2023-03-03T23:42:35.597Z,-2.28
2023-03-03T23:45:02.021Z,-2.33
2023-03-03T23:47:28.482Z,-2.19
2023-03-03T23:49:55.853Z,-2.36
2023-03-03T23:52:22.255Z,-2.28
2023-03-03T23:54:48.649Z,-2.14
2023-03-03T23:57:15.020Z,-2.14
2023-03-03T23:59:42.446Z,-2.14
